sensor_id;sensor_type;location;lat;lon;timestamp;P1;durP1;ratioP1;P2;durP2;ratioP2
13057;SDS011;6595;49.578;11.012;2023-12-14T00:00:23;11.7;;;7.3;;
13057;SDS011;6595;49.578;11.012;2023-12-14T00:02:23;11.7;;;7.3;;
13057;SDS011;6595;49.578;11.012;2023-12-14T00:04:23;13.5;;;7.3;;
13057;SDS011;6595;49.578;11.012;2023-12-14T00:06:24;12.7;;;7.6;;
13057;SDS011;6595;49.578;11.012;2023-12-14T00:08:23;13.4;;;7.8;;
13057;SDS011;6595;49.578;11.012;2023-12-14T00:10:23;13.4;;;7.8;;
13057;SDS011;6595;49.578;11.012;2023-12-14T00:12:23;13.4;;;7.5;;
13057;SDS011;6595;49.578;11.012;2023-12-14T00:14:23;12.3;;;7.6;;
13057;SDS011;6595;49.578;11.012;2023-12-14T00:16:24;14.6;;;8.0;;
13057;SDS011;6595;49.578;11.012;2023-12-14T00:18:23;13.2;;;8.1;;
13057;SDS011;6595;49.578;11.012;2023-12-14T00:20:23;14.8;;;8.1;;
13057;SDS011;6595;49.578;11.012;2023-12-14T00:22:23;14.8;;;8.1;;
13057;SDS011;6595;49.578;11.012;2023-12-14T00:24:23;14.0;;;8.3;;
13057;SDS011;6595;49.578;11.012;2023-12-14T00:26:24;16.5;;;8.7;;
13057;SDS011;6595;49.578;11.012;2023-12-14T00:28:23;14.0;;;8.2;;
13057;SDS011;6595;49.578;11.012;2023-12-14T00:30:23;15.6;;;8.5;;
13057;SDS011;6595;49.578;11.012;2023-12-14T00:32:23;15.6;;;8.5;;
13057;SDS011;6595;49.578;11.012;2023-12-14T00:34:23;14.5;;;8.0;;
13057;SDS011;6595;49.578;11.012;2023-12-14T00:36:24;15.1;;;8.5;;
13057;SDS011;6595;49.578;11.012;2023-12-14T00:38:24;17.4;;;8.0;;
13057;SDS011;6595;49.578;11.012;2023-12-14T00:40:23;14.7;;;8.7;;
13057;SDS011;6595;49.578;11.012;2023-12-14T00:42:23;14.7;;;8.7;;
13057;SDS011;6595;49.578;11.012;2023-12-14T00:44:23;14.9;;;8.1;;
13057;SDS011;6595;49.578;11.012;2023-12-14T00:46:23;14.5;;;8.0;;
13057;SDS011;6595;49.578;11.012;2023-12-14T00:48:24;13.2;;;7.6;;
13057;SDS011;6595;49.578;11.012;2023-12-14T00:50:24;13.8;;;7.6;;
13057;SDS011;6595;49.578;11.012;2023-12-14T00:52:23;13.8;;;7.6;;
13057;SDS011;6595;49.578;11.012;2023-12-14T00:54:23;12.1;;;7.6;;
13057;SDS011;6595;49.578;11.012;2023-12-14T00:56:24;13.5;;;7.6;;
13057;SDS011;6595;49.578;11.012;2023-12-14T00:58:24;12.5;;;7.6;;
13057;SDS011;6595;49.578;11.012;2023-12-14T01:00:23;12.5;;;7.6;;
13057;SDS011;6595;49.578;11.012;2023-12-14T01:02:23;13.9;;;8.1;;
13057;SDS011;6595;49.578;11.012;2023-12-14T01:04:23;12.9;;;7.7;;
13057;SDS011;6595;49.578;11.012;2023-12-14T01:06:24;13.3;;;7.7;;
13057;SDS011;6595;49.578;11.012;2023-12-14T01:08:24;14.0;;;7.8;;
13057;SDS011;6595;49.578;11.012;2023-12-14T01:10:23;14.0;;;7.8;;
13057;SDS011;6595;49.578;11.012;2023-12-14T01:12:23;14.2;;;8.0;;
13057;SDS011;6595;49.578;11.012;2023-12-14T01:14:23;14.0;;;7.9;;
13057;SDS011;6595;49.578;11.012;2023-12-14T01:16:25;14.8;;;8.3;;
13057;SDS011;6595;49.578;11.012;2023-12-14T01:18:24;16.5;;;9.2;;
13057;SDS011;6595;49.578;11.012;2023-12-14T01:20:24;16.5;;;9.2;;
13057;SDS011;6595;49.578;11.012;2023-12-14T01:22:23;15.3;;;9.0;;
13057;SDS011;6595;49.578;11.012;2023-12-14T01:24:23;18.2;;;9.3;;
13057;SDS011;6595;49.578;11.012;2023-12-14T01:26:23;18.2;;;9.3;;
13057;SDS011;6595;49.578;11.012;2023-12-14T01:28:24;19.9;;;9.2;;
13057;SDS011;6595;49.578;11.012;2023-12-14T01:30:24;19.9;;;9.2;;
13057;SDS011;6595;49.578;11.012;2023-12-14T01:32:24;19.0;;;9.4;;
13057;SDS011;6595;49.578;11.012;2023-12-14T01:34:24;17.8;;;9.3;;
13057;SDS011;6595;49.578;11.012;2023-12-14T01:36:24;15.9;;;8.7;;
13057;SDS011;6595;49.578;11.012;2023-12-14T01:38:23;15.9;;;8.7;;
13057;SDS011;6595;49.578;11.012;2023-12-14T01:40:23;19.7;;;9.2;;
13057;SDS011;6595;49.578;11.012;2023-12-14T01:42:23;20.3;;;9.6;;
13057;SDS011;6595;49.578;11.012;2023-12-14T01:44:24;20.3;;;9.6;;
13057;SDS011;6595;49.578;11.012;2023-12-14T01:46:23;15.9;;;8.7;;
13057;SDS011;6595;49.578;11.012;2023-12-14T01:48:23;15.9;;;8.7;;
13057;SDS011;6595;49.578;11.012;2023-12-14T01:50:23;17.5;;;9.4;;
13057;SDS011;6595;49.578;11.012;2023-12-14T01:52:24;17.4;;;9.4;;
13057;SDS011;6595;49.578;11.012;2023-12-14T01:54:24;19.1;;;10.2;;
13057;SDS011;6595;49.578;11.012;2023-12-14T01:56:23;17.2;;;9.2;;
13057;SDS011;6595;49.578;11.012;2023-12-14T01:58:23;17.2;;;9.2;;
13057;SDS011;6595;49.578;11.012;2023-12-14T02:00:25;17.7;;;9.1;;
13057;SDS011;6595;49.578;11.012;2023-12-14T02:02:23;19.3;;;10.3;;
13057;SDS011;6595;49.578;11.012;2023-12-14T02:04:24;21.6;;;10.6;;
13057;SDS011;6595;49.578;11.012;2023-12-14T02:06:23;19.8;;;10.7;;
13057;SDS011;6595;49.578;11.012;2023-12-14T02:08:23;19.8;;;10.7;;
13057;SDS011;6595;49.578;11.012;2023-12-14T02:10:23;21.3;;;10.3;;
13057;SDS011;6595;49.578;11.012;2023-12-14T02:12:23;19.2;;;10.2;;
13057;SDS011;6595;49.578;11.012;2023-12-14T02:14:24;20.2;;;10.7;;
13057;SDS011;6595;49.578;11.012;2023-12-14T02:16:23;18.9;;;10.5;;
13057;SDS011;6595;49.578;11.012;2023-12-14T02:18:23;18.9;;;10.5;;
13057;SDS011;6595;49.578;11.012;2023-12-14T02:20:23;19.6;;;10.3;;
13057;SDS011;6595;49.578;11.012;2023-12-14T02:22:23;19.4;;;10.3;;
13057;SDS011;6595;49.578;11.012;2023-12-14T02:24:23;21.5;;;10.1;;
13057;SDS011;6595;49.578;11.012;2023-12-14T02:26:24;21.5;;;10.1;;
13057;SDS011;6595;49.578;11.012;2023-12-14T02:28:24;22.5;;;11.3;;
13057;SDS011;6595;49.578;11.012;2023-12-14T02:30:23;19.0;;;9.9;;
13057;SDS011;6595;49.578;11.012;2023-12-14T02:32:23;20.6;;;10.2;;
13057;SDS011;6595;49.578;11.012;2023-12-14T02:34:23;21.1;;;10.3;;
13057;SDS011;6595;49.578;11.012;2023-12-14T02:36:23;21.1;;;10.3;;
13057;SDS011;6595;49.578;11.012;2023-12-14T02:38:24;21.5;;;10.1;;
13057;SDS011;6595;49.578;11.012;2023-12-14T02:40:23;18.7;;;10.0;;
13057;SDS011;6595;49.578;11.012;2023-12-14T02:42:23;19.2;;;9.9;;
13057;SDS011;6595;49.578;11.012;2023-12-14T02:44:23;19.2;;;9.9;;
13057;SDS011;6595;49.578;11.012;2023-12-14T02:46:23;20.1;;;10.0;;
13057;SDS011;6595;49.578;11.012;2023-12-14T02:48:24;20.4;;;10.5;;
13057;SDS011;6595;49.578;11.012;2023-12-14T02:50:23;20.2;;;10.8;;
13057;SDS011;6595;49.578;11.012;2023-12-14T02:52:23;19.2;;;10.7;;
13057;SDS011;6595;49.578;11.012;2023-12-14T02:54:24;21.5;;;11.3;;
13057;SDS011;6595;49.578;11.012;2023-12-14T02:56:23;21.5;;;11.3;;
13057;SDS011;6595;49.578;11.012;2023-12-14T02:58:23;20.4;;;11.3;;
13057;SDS011;6595;49.578;11.012;2023-12-14T03:00:23;19.4;;;10.5;;
13057;SDS011;6595;49.578;11.012;2023-12-14T03:02:24;23.0;;;10.9;;
13057;SDS011;6595;49.578;11.012;2023-12-14T03:04:23;23.0;;;10.9;;
13057;SDS011;6595;49.578;11.012;2023-12-14T03:06:23;21.2;;;10.5;;
13057;SDS011;6595;49.578;11.012;2023-12-14T03:08:23;20.8;;;10.7;;
13057;SDS011;6595;49.578;11.012;2023-12-14T03:10:23;20.1;;;10.8;;
13057;SDS011;6595;49.578;11.012;2023-12-14T03:12:24;19.3;;;10.4;;
13057;SDS011;6595;49.578;11.012;2023-12-14T03:14:24;19.3;;;10.4;;
13057;SDS011;6595;49.578;11.012;2023-12-14T03:16:23;20.2;;;11.1;;
13057;SDS011;6595;49.578;11.012;2023-12-14T03:18:23;20.0;;;10.8;;
13057;SDS011;6595;49.578;11.012;2023-12-14T03:20:24;22.5;;;11.0;;
13057;SDS011;6595;49.578;11.012;2023-12-14T03:22:24;20.7;;;10.8;;
13057;SDS011;6595;49.578;11.012;2023-12-14T03:24:23;20.7;;;10.8;;
13057;SDS011;6595;49.578;11.012;2023-12-14T03:26:23;20.7;;;10.9;;
13057;SDS011;6595;49.578;11.012;2023-12-14T03:28:23;21.3;;;10.7;;
13057;SDS011;6595;49.578;11.012;2023-12-14T03:30:23;21.2;;;10.1;;
13057;SDS011;6595;49.578;11.012;2023-12-14T03:32:24;21.2;;;10.1;;
13057;SDS011;6595;49.578;11.012;2023-12-14T03:34:24;19.8;;;10.1;;
13057;SDS011;6595;49.578;11.012;2023-12-14T03:36:23;22.0;;;10.6;;
13057;SDS011;6595;49.578;11.012;2023-12-14T03:38:23;22.1;;;10.6;;
13057;SDS011;6595;49.578;11.012;2023-12-14T03:40:23;22.1;;;10.6;;
13057;SDS011;6595;49.578;11.012;2023-12-14T03:42:24;21.0;;;9.9;;
13057;SDS011;6595;49.578;11.012;2023-12-14T03:44:24;21.0;;;9.9;;
13057;SDS011;6595;49.578;11.012;2023-12-14T03:46:23;20.4;;;9.7;;
13057;SDS011;6595;49.578;11.012;2023-12-14T03:48:23;23.0;;;10.3;;
13057;SDS011;6595;49.578;11.012;2023-12-14T03:50:23;23.0;;;10.3;;
13057;SDS011;6595;49.578;11.012;2023-12-14T03:52:23;22.2;;;10.4;;
13057;SDS011;6595;49.578;11.012;2023-12-14T03:54:24;22.2;;;10.4;;
13057;SDS011;6595;49.578;11.012;2023-12-14T03:56:23;19.5;;;9.7;;
13057;SDS011;6595;49.578;11.012;2023-12-14T03:58:23;22.5;;;10.6;;
13057;SDS011;6595;49.578;11.012;2023-12-14T04:00:23;24.1;;;10.5;;
13057;SDS011;6595;49.578;11.012;2023-12-14T04:02:23;24.1;;;10.5;;
13057;SDS011;6595;49.578;11.012;2023-12-14T04:04:24;20.4;;;10.0;;
13057;SDS011;6595;49.578;11.012;2023-12-14T04:06:23;21.2;;;10.3;;
13057;SDS011;6595;49.578;11.012;2023-12-14T04:08:23;21.9;;;10.4;;
13057;SDS011;6595;49.578;11.012;2023-12-14T04:10:23;22.6;;;10.2;;
13057;SDS011;6595;49.578;11.012;2023-12-14T04:12:24;22.6;;;10.2;;
13057;SDS011;6595;49.578;11.012;2023-12-14T04:14:24;19.5;;;9.9;;
13057;SDS011;6595;49.578;11.012;2023-12-14T04:16:23;22.3;;;10.3;;
13057;SDS011;6595;49.578;11.012;2023-12-14T04:18:23;22.3;;;10.3;;
13057;SDS011;6595;49.578;11.012;2023-12-14T04:20:23;21.6;;;10.4;;
13057;SDS011;6595;49.578;11.012;2023-12-14T04:22:23;21.1;;;10.4;;
13057;SDS011;6595;49.578;11.012;2023-12-14T04:24:24;23.0;;;10.4;;
13057;SDS011;6595;49.578;11.012;2023-12-14T04:26:23;22.4;;;10.3;;
13057;SDS011;6595;49.578;11.012;2023-12-14T04:28:23;22.4;;;10.3;;
13057;SDS011;6595;49.578;11.012;2023-12-14T04:30:23;25.5;;;10.4;;
13057;SDS011;6595;49.578;11.012;2023-12-14T04:32:23;25.5;;;10.4;;
13057;SDS011;6595;49.578;11.012;2023-12-14T04:34:23;25.5;;;10.4;;
13057;SDS011;6595;49.578;11.012;2023-12-14T04:36:24;23.3;;;10.1;;
13057;SDS011;6595;49.578;11.012;2023-12-14T04:38:23;23.3;;;10.1;;
13057;SDS011;6595;49.578;11.012;2023-12-14T04:40:23;23.8;;;11.1;;
13057;SDS011;6595;49.578;11.012;2023-12-14T04:42:23;23.8;;;11.1;;
13057;SDS011;6595;49.578;11.012;2023-12-14T04:44:24;25.9;;;10.7;;
13057;SDS011;6595;49.578;11.012;2023-12-14T04:46:23;21.4;;;10.2;;
13057;SDS011;6595;49.578;11.012;2023-12-14T04:48:23;21.4;;;10.2;;
13057;SDS011;6595;49.578;11.012;2023-12-14T04:50:23;25.8;;;11.5;;
13057;SDS011;6595;49.578;11.012;2023-12-14T04:52:23;25.8;;;11.5;;
13057;SDS011;6595;49.578;11.012;2023-12-14T04:54:24;23.8;;;10.1;;
13057;SDS011;6595;49.578;11.012;2023-12-14T04:56:23;22.2;;;10.1;;
13057;SDS011;6595;49.578;11.012;2023-12-14T04:58:23;22.2;;;10.1;;
13057;SDS011;6595;49.578;11.012;2023-12-14T05:00:23;25.1;;;10.8;;
13057;SDS011;6595;49.578;11.012;2023-12-14T05:02:23;21.9;;;10.1;;
13057;SDS011;6595;49.578;11.012;2023-12-14T05:04:23;22.2;;;10.4;;
13057;SDS011;6595;49.578;11.012;2023-12-14T05:06:24;23.1;;;10.3;;
13057;SDS011;6595;49.578;11.012;2023-12-14T05:08:24;24.8;;;10.2;;
13057;SDS011;6595;49.578;11.012;2023-12-14T05:10:23;24.8;;;10.2;;
13057;SDS011;6595;49.578;11.012;2023-12-14T05:12:24;22.6;;;10.8;;
13057;SDS011;6595;49.578;11.012;2023-12-14T05:14:24;21.9;;;10.6;;
13057;SDS011;6595;49.578;11.012;2023-12-14T05:16:23;22.3;;;10.7;;
13057;SDS011;6595;49.578;11.012;2023-12-14T05:18:23;22.3;;;10.7;;
13057;SDS011;6595;49.578;11.012;2023-12-14T05:20:23;25.3;;;11.3;;
13057;SDS011;6595;49.578;11.012;2023-12-14T05:22:24;28.4;;;11.8;;
13057;SDS011;6595;49.578;11.012;2023-12-14T05:24:23;24.7;;;11.5;;
13057;SDS011;6595;49.578;11.012;2023-12-14T05:26:23;24.0;;;11.1;;
13057;SDS011;6595;49.578;11.012;2023-12-14T05:28:24;24.0;;;11.1;;
13057;SDS011;6595;49.578;11.012;2023-12-14T05:30:23;24.7;;;11.1;;
13057;SDS011;6595;49.578;11.012;2023-12-14T05:32:23;28.2;;;12.2;;
13057;SDS011;6595;49.578;11.012;2023-12-14T05:34:23;26.5;;;11.3;;
13057;SDS011;6595;49.578;11.012;2023-12-14T05:36:24;26.5;;;11.3;;
13057;SDS011;6595;49.578;11.012;2023-12-14T05:38:24;29.5;;;12.4;;
13057;SDS011;6595;49.578;11.012;2023-12-14T05:40:23;27.3;;;12.6;;
13057;SDS011;6595;49.578;11.012;2023-12-14T05:42:23;23.7;;;11.0;;
13057;SDS011;6595;49.578;11.012;2023-12-14T05:44:23;26.2;;;12.3;;
13057;SDS011;6595;49.578;11.012;2023-12-14T05:46:23;26.2;;;12.3;;
13057;SDS011;6595;49.578;11.012;2023-12-14T05:48:23;26.9;;;11.3;;
13057;SDS011;6595;49.578;11.012;2023-12-14T05:50:24;26.0;;;11.6;;
13057;SDS011;6595;49.578;11.012;2023-12-14T05:52:23;27.6;;;11.7;;
13057;SDS011;6595;49.578;11.012;2023-12-14T05:54:23;28.4;;;12.0;;
13057;SDS011;6595;49.578;11.012;2023-12-14T05:56:23;28.4;;;12.0;;
13057;SDS011;6595;49.578;11.012;2023-12-14T05:58:23;27.6;;;12.1;;
13057;SDS011;6595;49.578;11.012;2023-12-14T06:00:23;26.2;;;11.8;;
13057;SDS011;6595;49.578;11.012;2023-12-14T06:02:24;28.0;;;11.5;;
13057;SDS011;6595;49.578;11.012;2023-12-14T06:04:24;30.6;;;12.4;;
13057;SDS011;6595;49.578;11.012;2023-12-14T06:06:24;28.3;;;11.8;;
13057;SDS011;6595;49.578;11.012;2023-12-14T06:08:23;28.3;;;11.8;;
13057;SDS011;6595;49.578;11.012;2023-12-14T06:10:23;27.4;;;11.9;;
13057;SDS011;6595;49.578;11.012;2023-12-14T06:12:23;28.8;;;12.1;;
13057;SDS011;6595;49.578;11.012;2023-12-14T06:14:23;28.8;;;12.1;;
13057;SDS011;6595;49.578;11.012;2023-12-14T06:16:24;30.7;;;12.4;;
13057;SDS011;6595;49.578;11.012;2023-12-14T06:18:23;30.7;;;12.4;;
13057;SDS011;6595;49.578;11.012;2023-12-14T06:20:23;27.4;;;11.8;;
13057;SDS011;6595;49.578;11.012;2023-12-14T06:22:23;28.1;;;12.7;;
13057;SDS011;6595;49.578;11.012;2023-12-14T06:24:23;27.6;;;12.6;;
13057;SDS011;6595;49.578;11.012;2023-12-14T06:26:24;27.6;;;12.4;;
13057;SDS011;6595;49.578;11.012;2023-12-14T06:28:24;27.6;;;12.4;;
13057;SDS011;6595;49.578;11.012;2023-12-14T06:30:23;28.2;;;12.6;;
13057;SDS011;6595;49.578;11.012;2023-12-14T06:32:23;31.7;;;12.7;;
13057;SDS011;6595;49.578;11.012;2023-12-14T06:34:23;30.5;;;12.4;;
13057;SDS011;6595;49.578;11.012;2023-12-14T06:36:24;30.0;;;13.3;;
13057;SDS011;6595;49.578;11.012;2023-12-14T06:38:24;30.0;;;13.3;;
13057;SDS011;6595;49.578;11.012;2023-12-14T06:40:23;30.8;;;13.8;;
13057;SDS011;6595;49.578;11.012;2023-12-14T06:42:23;31.8;;;13.5;;
13057;SDS011;6595;49.578;11.012;2023-12-14T06:44:23;32.2;;;13.5;;
13057;SDS011;6595;49.578;11.012;2023-12-14T06:46:23;32.2;;;13.5;;
13057;SDS011;6595;49.578;11.012;2023-12-14T06:48:24;35.1;;;14.5;;
13057;SDS011;6595;49.578;11.012;2023-12-14T06:50:24;35.4;;;14.3;;
13057;SDS011;6595;49.578;11.012;2023-12-14T06:52:24;33.6;;;13.8;;
13057;SDS011;6595;49.578;11.012;2023-12-14T06:54:23;33.6;;;13.8;;
13057;SDS011;6595;49.578;11.012;2023-12-14T06:56:23;32.8;;;14.1;;
13057;SDS011;6595;49.578;11.012;2023-12-14T06:58:24;29.0;;;13.5;;
13057;SDS011;6595;49.578;11.012;2023-12-14T07:00:24;28.2;;;13.4;;
13057;SDS011;6595;49.578;11.012;2023-12-14T07:02:23;27.3;;;12.5;;
13057;SDS011;6595;49.578;11.012;2023-12-14T07:04:24;27.3;;;12.5;;
13057;SDS011;6595;49.578;11.012;2023-12-14T07:06:24;29.9;;;13.4;;
13057;SDS011;6595;49.578;11.012;2023-12-14T07:08:23;29.6;;;13.1;;
13057;SDS011;6595;49.578;11.012;2023-12-14T07:10:23;31.1;;;13.1;;
13057;SDS011;6595;49.578;11.012;2023-12-14T07:12:23;31.1;;;13.1;;
13057;SDS011;6595;49.578;11.012;2023-12-14T07:14:24;30.8;;;13.3;;
13057;SDS011;6595;49.578;11.012;2023-12-14T07:16:23;30.8;;;13.3;;
13057;SDS011;6595;49.578;11.012;2023-12-14T07:18:23;31.4;;;13.1;;
13057;SDS011;6595;49.578;11.012;2023-12-14T07:20:23;28.6;;;12.9;;
13057;SDS011;6595;49.578;11.012;2023-12-14T07:22:23;28.6;;;12.9;;
13057;SDS011;6595;49.578;11.012;2023-12-14T07:24:24;31.2;;;13.8;;
13057;SDS011;6595;49.578;11.012;2023-12-14T07:26:24;30.1;;;13.0;;
13057;SDS011;6595;49.578;11.012;2023-12-14T07:28:24;30.8;;;13.3;;
13057;SDS011;6595;49.578;11.012;2023-12-14T07:30:23;30.8;;;13.3;;
13057;SDS011;6595;49.578;11.012;2023-12-14T07:32:23;28.9;;;12.9;;
13057;SDS011;6595;49.578;11.012;2023-12-14T07:34:23;29.6;;;13.2;;
13057;SDS011;6595;49.578;11.012;2023-12-14T07:36:23;29.6;;;13.2;;
13057;SDS011;6595;49.578;11.012;2023-12-14T07:38:24;30.8;;;12.6;;
13057;SDS011;6595;49.578;11.012;2023-12-14T07:40:23;30.8;;;12.6;;
13057;SDS011;6595;49.578;11.012;2023-12-14T07:42:24;29.9;;;12.5;;
13057;SDS011;6595;49.578;11.012;2023-12-14T07:44:23;29.9;;;12.5;;
13057;SDS011;6595;49.578;11.012;2023-12-14T07:46:23;30.3;;;13.1;;
13057;SDS011;6595;49.578;11.012;2023-12-14T07:48:23;29.8;;;12.9;;
13057;SDS011;6595;49.578;11.012;2023-12-14T07:50:23;29.8;;;12.9;;
13057;SDS011;6595;49.578;11.012;2023-12-14T07:52:23;29.9;;;13.8;;
13057;SDS011;6595;49.578;11.012;2023-12-14T07:54:23;29.9;;;13.8;;
13057;SDS011;6595;49.578;11.012;2023-12-14T07:56:24;28.0;;;12.7;;
13057;SDS011;6595;49.578;11.012;2023-12-14T07:58:24;26.6;;;12.4;;
13057;SDS011;6595;49.578;11.012;2023-12-14T08:00:23;26.6;;;12.4;;
13057;SDS011;6595;49.578;11.012;2023-12-14T08:02:23;30.1;;;13.5;;
13057;SDS011;6595;49.578;11.012;2023-12-14T08:04:23;30.1;;;13.5;;
13057;SDS011;6595;49.578;11.012;2023-12-14T08:06:23;34.9;;;14.2;;
13057;SDS011;6595;49.578;11.012;2023-12-14T08:08:24;29.5;;;13.1;;
13057;SDS011;6595;49.578;11.012;2023-12-14T08:10:23;29.5;;;13.1;;
13057;SDS011;6595;49.578;11.012;2023-12-14T08:12:23;30.3;;;12.6;;
13057;SDS011;6595;49.578;11.012;2023-12-14T08:14:23;29.9;;;13.5;;
13057;SDS011;6595;49.578;11.012;2023-12-14T08:16:24;29.7;;;13.1;;
13057;SDS011;6595;49.578;11.012;2023-12-14T08:18:23;28.7;;;13.1;;
13057;SDS011;6595;49.578;11.012;2023-12-14T08:20:23;28.7;;;13.1;;
13057;SDS011;6595;49.578;11.012;2023-12-14T08:22:23;31.4;;;13.1;;
13057;SDS011;6595;49.578;11.012;2023-12-14T08:24:23;28.1;;;13.1;;
13057;SDS011;6595;49.578;11.012;2023-12-14T08:26:23;31.0;;;13.3;;
13057;SDS011;6595;49.578;11.012;2023-12-14T08:28:24;28.6;;;13.0;;
13057;SDS011;6595;49.578;11.012;2023-12-14T08:30:23;26.9;;;12.9;;
13057;SDS011;6595;49.578;11.012;2023-12-14T08:32:23;26.9;;;12.9;;
13057;SDS011;6595;49.578;11.012;2023-12-14T08:34:23;28.3;;;12.9;;
13057;SDS011;6595;49.578;11.012;2023-12-14T08:36:23;29.6;;;13.2;;
13057;SDS011;6595;49.578;11.012;2023-12-14T08:38:24;29.6;;;13.2;;
13057;SDS011;6595;49.578;11.012;2023-12-14T08:40:23;27.1;;;13.0;;
13057;SDS011;6595;49.578;11.012;2023-12-14T08:42:23;27.1;;;13.0;;
13057;SDS011;6595;49.578;11.012;2023-12-14T08:44:23;27.7;;;12.8;;
13057;SDS011;6595;49.578;11.012;2023-12-14T08:46:24;27.2;;;12.5;;
13057;SDS011;6595;49.578;11.012;2023-12-14T08:48:23;29.9;;;13.2;;
13057;SDS011;6595;49.578;11.012;2023-12-14T08:50:23;28.5;;;12.7;;
13057;SDS011;6595;49.578;11.012;2023-12-14T08:52:23;28.5;;;12.7;;
13057;SDS011;6595;49.578;11.012;2023-12-14T08:54:23;27.2;;;12.8;;
13057;SDS011;6595;49.578;11.012;2023-12-14T08:56:24;27.9;;;13.3;;
13057;SDS011;6595;49.578;11.012;2023-12-14T08:58:23;65.0;;;28.3;;
13057;SDS011;6595;49.578;11.012;2023-12-14T09:00:23;30.0;;;15.1;;
13057;SDS011;6595;49.578;11.012;2023-12-14T09:02:23;30.0;;;15.1;;
13057;SDS011;6595;49.578;11.012;2023-12-14T09:04:23;30.0;;;15.1;;
13057;SDS011;6595;49.578;11.012;2023-12-14T09:06:23;25.5;;;12.4;;
13057;SDS011;6595;49.578;11.012;2023-12-14T09:08:23;25.5;;;12.4;;
13057;SDS011;6595;49.578;11.012;2023-12-14T09:10:24;26.4;;;12.3;;
13057;SDS011;6595;49.578;11.012;2023-12-14T09:12:24;25.8;;;12.0;;
13057;SDS011;6595;49.578;11.012;2023-12-14T09:14:23;26.2;;;12.5;;
13057;SDS011;6595;49.578;11.012;2023-12-14T09:16:23;25.6;;;11.7;;
13057;SDS011;6595;49.578;11.012;2023-12-14T09:18:23;25.6;;;11.7;;
13057;SDS011;6595;49.578;11.012;2023-12-14T09:20:23;25.3;;;12.0;;
13057;SDS011;6595;49.578;11.012;2023-12-14T09:22:24;24.3;;;11.6;;
13057;SDS011;6595;49.578;11.012;2023-12-14T09:24:24;25.6;;;11.9;;
13057;SDS011;6595;49.578;11.012;2023-12-14T09:26:23;25.6;;;11.9;;
13057;SDS011;6595;49.578;11.012;2023-12-14T09:28:23;23.8;;;11.3;;
13057;SDS011;6595;49.578;11.012;2023-12-14T09:30:23;23.8;;;11.3;;
13057;SDS011;6595;49.578;11.012;2023-12-14T09:32:23;23.8;;;11.3;;
13057;SDS011;6595;49.578;11.012;2023-12-14T09:34:24;24.8;;;10.8;;
13057;SDS011;6595;49.578;11.012;2023-12-14T09:36:23;24.8;;;10.8;;
13057;SDS011;6595;49.578;11.012;2023-12-14T09:38:23;25.2;;;11.2;;
13057;SDS011;6595;49.578;11.012;2023-12-14T09:40:23;25.2;;;11.2;;
13057;SDS011;6595;49.578;11.012;2023-12-14T09:42:23;24.4;;;11.8;;
13057;SDS011;6595;49.578;11.012;2023-12-14T09:44:24;27.1;;;11.3;;
13057;SDS011;6595;49.578;11.012;2023-12-14T09:46:23;27.1;;;11.3;;
13057;SDS011;6595;49.578;11.012;2023-12-14T09:48:23;22.7;;;11.2;;
13057;SDS011;6595;49.578;11.012;2023-12-14T09:50:23;21.3;;;10.9;;
13057;SDS011;6595;49.578;11.012;2023-12-14T09:52:23;25.5;;;11.9;;
13057;SDS011;6595;49.578;11.012;2023-12-14T09:54:23;22.9;;;10.8;;
13057;SDS011;6595;49.578;11.012;2023-12-14T09:56:24;22.9;;;10.8;;
13057;SDS011;6595;49.578;11.012;2023-12-14T09:58:23;23.8;;;11.9;;
13057;SDS011;6595;49.578;11.012;2023-12-14T10:00:32;23.2;;;11.5;;
13057;SDS011;6595;49.578;11.012;2023-12-14T10:02:24;24.8;;;12.0;;
13057;SDS011;6595;49.578;11.012;2023-12-14T10:04:23;21.1;;;10.5;;
13057;SDS011;6595;49.578;11.012;2023-12-14T10:06:24;22.2;;;10.4;;
13057;SDS011;6595;49.578;11.012;2023-12-14T10:08:24;22.2;;;10.4;;
13057;SDS011;6595;49.578;11.012;2023-12-14T10:10:28;24.7;;;11.5;;
13057;SDS011;6595;49.578;11.012;2023-12-14T10:12:24;21.7;;;10.6;;
13057;SDS011;6595;49.578;11.012;2023-12-14T10:14:24;21.2;;;10.7;;
13057;SDS011;6595;49.578;11.012;2023-12-14T10:16:27;23.1;;;10.8;;
13057;SDS011;6595;49.578;11.012;2023-12-14T10:18:23;23.1;;;10.8;;
13057;SDS011;6595;49.578;11.012;2023-12-14T10:20:23;23.1;;;10.8;;
13057;SDS011;6595;49.578;11.012;2023-12-14T10:22:24;26.0;;;13.1;;
13057;SDS011;6595;49.578;11.012;2023-12-14T10:24:23;24.9;;;11.9;;
13057;SDS011;6595;49.578;11.012;2023-12-14T10:26:24;24.9;;;11.9;;
13057;SDS011;6595;49.578;11.012;2023-12-14T10:28:23;27.1;;;11.4;;
13057;SDS011;6595;49.578;11.012;2023-12-14T10:30:23;27.1;;;11.4;;
13057;SDS011;6595;49.578;11.012;2023-12-14T10:32:23;23.5;;;11.4;;
13057;SDS011;6595;49.578;11.012;2023-12-14T10:34:23;23.2;;;11.1;;
13057;SDS011;6595;49.578;11.012;2023-12-14T10:36:24;23.2;;;11.1;;
13057;SDS011;6595;49.578;11.012;2023-12-14T10:38:24;22.2;;;11.5;;
13057;SDS011;6595;49.578;11.012;2023-12-14T10:40:23;23.1;;;11.1;;
13057;SDS011;6595;49.578;11.012;2023-12-14T10:42:23;23.7;;;11.3;;
13057;SDS011;6595;49.578;11.012;2023-12-14T10:44:24;23.5;;;12.1;;
13057;SDS011;6595;49.578;11.012;2023-12-14T10:46:23;23.5;;;12.1;;
13057;SDS011;6595;49.578;11.012;2023-12-14T10:48:23;22.1;;;11.3;;
13057;SDS011;6595;49.578;11.012;2023-12-14T10:50:23;24.4;;;11.5;;
13057;SDS011;6595;49.578;11.012;2023-12-14T10:52:24;24.4;;;11.5;;
13057;SDS011;6595;49.578;11.012;2023-12-14T10:54:24;25.5;;;13.0;;
13057;SDS011;6595;49.578;11.012;2023-12-14T10:56:23;25.5;;;13.0;;
13057;SDS011;6595;49.578;11.012;2023-12-14T10:58:23;28.2;;;14.3;;
13057;SDS011;6595;49.578;11.012;2023-12-14T11:00:23;27.9;;;13.5;;
13057;SDS011;6595;49.578;11.012;2023-12-14T11:02:23;27.6;;;12.8;;
13057;SDS011;6595;49.578;11.012;2023-12-14T11:04:24;24.3;;;11.9;;
13057;SDS011;6595;49.578;11.012;2023-12-14T11:06:28;24.3;;;11.9;;
13057;SDS011;6595;49.578;11.012;2023-12-14T11:08:23;23.9;;;12.0;;
13057;SDS011;6595;49.578;11.012;2023-12-14T11:10:26;24.9;;;12.0;;
13057;SDS011;6595;49.578;11.012;2023-12-14T11:12:23;27.5;;;13.8;;
13057;SDS011;6595;49.578;11.012;2023-12-14T11:14:23;22.7;;;12.0;;
13057;SDS011;6595;49.578;11.012;2023-12-14T11:16:25;22.7;;;12.0;;
13057;SDS011;6595;49.578;11.012;2023-12-14T11:18:25;26.2;;;13.3;;
13057;SDS011;6595;49.578;11.012;2023-12-14T11:20:24;27.4;;;13.0;;
13057;SDS011;6595;49.578;11.012;2023-12-14T11:22:24;24.1;;;13.2;;
13057;SDS011;6595;49.578;11.012;2023-12-14T11:24:23;26.5;;;12.7;;
13057;SDS011;6595;49.578;11.012;2023-12-14T11:26:24;26.5;;;12.7;;
13057;SDS011;6595;49.578;11.012;2023-12-14T11:28:23;26.0;;;13.2;;
13057;SDS011;6595;49.578;11.012;2023-12-14T11:30:24;26.1;;;12.8;;
13057;SDS011;6595;49.578;11.012;2023-12-14T11:32:24;26.6;;;12.5;;
13057;SDS011;6595;49.578;11.012;2023-12-14T11:34:23;26.6;;;12.5;;
13057;SDS011;6595;49.578;11.012;2023-12-14T11:36:23;24.4;;;11.6;;
13057;SDS011;6595;49.578;11.012;2023-12-14T11:38:23;24.4;;;11.6;;
13057;SDS011;6595;49.578;11.012;2023-12-14T11:40:23;27.9;;;12.8;;
13057;SDS011;6595;49.578;11.012;2023-12-14T11:42:23;27.9;;;12.8;;
13057;SDS011;6595;49.578;11.012;2023-12-14T11:44:24;27.0;;;12.2;;
13057;SDS011;6595;49.578;11.012;2023-12-14T11:46:23;23.6;;;12.0;;
13057;SDS011;6595;49.578;11.012;2023-12-14T11:48:23;23.5;;;12.3;;
13057;SDS011;6595;49.578;11.012;2023-12-14T11:50:24;23.5;;;12.3;;
13057;SDS011;6595;49.578;11.012;2023-12-14T11:52:23;23.0;;;11.8;;
13057;SDS011;6595;49.578;11.012;2023-12-14T11:54:23;23.0;;;11.8;;
13057;SDS011;6595;49.578;11.012;2023-12-14T11:56:23;23.6;;;12.5;;
13057;SDS011;6595;49.578;11.012;2023-12-14T11:58:23;24.4;;;12.8;;
13057;SDS011;6595;49.578;11.012;2023-12-14T12:00:24;23.8;;;12.7;;
13057;SDS011;6595;49.578;11.012;2023-12-14T12:02:24;24.6;;;11.8;;
13057;SDS011;6595;49.578;11.012;2023-12-14T12:04:24;24.6;;;11.8;;